Terminal Aerodrome Forecast
Issued by NWS

Home | Current Version | Previous Version | Text Only | Print | Product List | Glossary On
Versions: 1 2 3 4 5 6 7 8 9 10 11 12 13 14 15 16 17
000
FTUS45 KABQ 222300
TAFSAF
TAF
KSAF 222337Z 2300/2324 13014G24KT P6SM VCTS BKN100CB
      TEMPO 2300/2302 VRB15G30KT -TSRA BKN080CB
     FM230200 13010KT P6SM SCT100 SCT150
     FM230800 04007KT P6SM SCT090 SCT150
     FM231900 15012G22KT P6SM SCT100
     FM232200 17015KT P6SM VCTS SCT090CB=

USA.gov is the U.S. government's official web portal to all federal, state and local government web resources and services.